Time;durP1;ratioP1;P1;durP2;ratioP2;P2;SDS_P1;SDS_P2;PMS_P1;PMS_P2;Temp;Humidity;BMP_temperature;BMP_pressure;BME280_temperature;BME280_humidity;BME280_pressure;Samples;Min_cycle;Max_cycle;Signal;HPM_P1;HPM_P2
2023/08/12 00:01:31;;;;;;;0.60;0.60;;;15.70;96.80;;;;;;4965403;28;20736;-85
2023/08/12 00:04:00;;;;;;;0.90;0.90;;;15.60;96.90;;;;;;4965568;28;20453;-86
2023/08/12 00:06:28;;;;;;;1.00;1.00;;;15.60;97.10;;;;;;4965278;29;20488;-85
2023/08/12 00:08:57;;;;;;;1.63;1.53;;;15.60;96.80;;;;;;4956228;28;20434;-85
2023/08/12 00:11:24;;;;;;;2.20;1.93;;;15.60;96.60;;;;;;4970419;28;20423;-86
2023/08/12 00:13:52;;;;;;;3.70;2.70;;;15.60;96.80;;;;;;4958764;28;20611;-85
2023/08/12 00:16:19;;;;;;;1.30;1.23;;;15.60;97.00;;;;;;4963454;28;20465;-85
2023/08/12 00:18:48;;;;;;;1.47;1.37;;;15.60;96.90;;;;;;4963262;28;20482;-85
2023/08/12 00:21:17;;;;;;;1.40;1.37;;;15.50;97.10;;;;;;4958131;28;20449;-87
2023/08/12 00:23:45;;;;;;;2.83;2.63;;;15.50;97.10;;;;;;4963748;28;20461;-87
2023/08/12 00:26:13;;;;;;;0.70;0.70;;;15.50;97.10;;;;;;4963552;28;20485;-85
2023/08/12 00:28:40;;;;;;;1.70;1.60;;;15.50;97.40;;;;;;4962358;29;20932;-86
2023/08/12 00:31:08;;;;;;;3.13;2.37;;;15.40;97.60;;;;;;4963427;28;20504;-86
2023/08/12 00:33:35;;;;;;;1.10;1.10;;;15.30;97.90;;;;;;4963301;28;20490;-85
2023/08/12 00:36:02;;;;;;;4.73;4.50;;;15.40;97.80;;;;;;4957510;28;20457;-86
2023/08/12 00:38:29;;;;;;;0.93;0.93;;;15.40;97.70;;;;;;4957350;28;20548;-86
2023/08/12 00:40:57;;;;;;;1.63;1.57;;;15.40;97.90;;;;;;4961108;28;20632;-84
2023/08/12 00:43:25;;;;;;;2.90;2.70;;;15.30;98.10;;;;;;4962060;28;20420;-83
2023/08/12 00:45:52;;;;;;;1.70;1.60;;;15.10;98.80;;;;;;4964981;28;20440;-87
2023/08/12 00:48:19;;;;;;;2.23;2.13;;;15.40;98.40;;;;;;4964328;28;20441;-84
2023/08/12 00:50:47;;;;;;;1.73;1.30;;;15.20;98.40;;;;;;4970743;28;20452;-89
2023/08/12 00:53:15;;;;;;;2.77;2.30;;;15.20;98.30;;;;;;4970456;28;20672;-85
2023/08/12 00:55:42;;;;;;;0.83;0.80;;;15.20;98.30;;;;;;4961001;28;20481;-87
2023/08/12 00:58:10;;;;;;;3.47;3.27;;;15.20;98.50;;;;;;4953058;28;20523;-85
2023/08/12 01:00:37;;;;;;;3.70;2.07;;;15.10;98.50;;;;;;4969560;28;20441;-85
2023/08/12 01:03:06;;;;;;;1.70;1.60;;;15.10;98.60;;;;;;4971712;28;20482;-87
2023/08/12 01:05:33;;;;;;;2.00;1.90;;;15.10;98.60;;;;;;4977745;28;20499;-88
2023/08/12 01:08:03;;;;;;;1.20;1.20;;;15.20;98.50;;;;;;4973948;28;20532;-86
2023/08/12 01:10:35;;;;;;;2.10;1.70;;;15.30;98.30;;;;;;4974645;28;20741;-86
2023/08/12 01:13:21;;;;;;;6.53;3.40;;;15.30;98.40;;;;;;4970288;28;20441;-84
2023/08/12 01:15:52;;;;;;;1.83;1.73;;;15.40;98.20;;;;;;4973580;28;20433;-89
2023/08/12 01:18:23;;;;;;;1.53;1.50;;;15.40;98.20;;;;;;4968590;28;20470;-88
2023/08/12 01:20:50;;;;;;;1.90;1.73;;;15.50;98.30;;;;;;4965180;28;20429;-89
2023/08/12 01:23:17;;;;;;;1.17;1.17;;;15.40;98.50;;;;;;4971229;28;20438;-84
2023/08/12 01:25:44;;;;;;;6.80;2.60;;;15.30;98.70;;;;;;4979135;28;20423;-87
2023/08/12 01:28:11;;;;;;;2.37;2.27;;;15.30;99.00;;;;;;4982787;28;20457;-89
2023/08/12 01:30:57;;;;;;;2.20;2.00;;;15.20;99.10;;;;;;4971552;28;20481;-88
2023/08/12 01:33:46;;;;;;;2.20;2.10;;;15.20;99.10;;;;;;4971210;28;20512;-88
2023/08/12 01:36:17;;;;;;;1.30;1.20;;;15.20;99.30;;;;;;4968944;29;20422;-87
2023/08/12 01:38:46;;;;;;;1.53;1.43;;;15.10;99.50;;;;;;4969728;29;20664;-87
2023/08/12 01:41:16;;;;;;;2.20;2.10;;;15.10;99.70;;;;;;4964127;28;20749;-86
2023/08/12 01:43:43;;;;;;;1.00;1.00;;;15.10;99.70;;;;;;4961154;28;20642;-84
2023/08/12 01:46:10;;;;;;;2.30;2.20;;;15.10;99.70;;;;;;4964311;28;20473;-88
2023/08/12 01:48:37;;;;;;;0.80;0.80;;;15.00;99.70;;;;;;4965707;28;20456;-88
2023/08/12 01:51:05;;;;;;;5.20;4.80;;;15.10;99.70;;;;;;4961579;28;20480;-85
2023/08/12 01:53:31;;;;;;;6.27;2.10;;;15.00;99.90;;;;;;4969865;28;20452;-87
2023/08/12 01:55:59;;;;;;;3.20;2.97;;;15.00;99.90;;;;;;4968131;28;20466;-89
2023/08/12 01:58:26;;;;;;;1.33;1.23;;;14.90;99.90;;;;;;4968046;28;20539;-89
2023/08/12 02:00:56;;;;;;;1.53;1.43;;;14.90;99.90;;;;;;4966649;29;20530;-85
2023/08/12 02:03:23;;;;;;;1.93;1.87;;;14.90;99.90;;;;;;4975128;28;20439;-88
2023/08/12 02:05:50;;;;;;;2.63;2.43;;;14.80;99.90;;;;;;4958465;28;20473;-86
2023/08/12 02:08:17;;;;;;;0.80;0.80;;;14.90;99.90;;;;;;4965911;28;20460;-89
2023/08/12 02:10:44;;;;;;;1.63;1.53;;;14.80;99.90;;;;;;4972506;29;20678;-84
2023/08/12 02:13:12;;;;;;;1.60;1.60;;;14.90;99.90;;;;;;4966217;28;20881;-86
2023/08/12 02:15:38;;;;;;;2.53;2.20;;;14.90;99.90;;;;;;4960719;29;20425;-84
2023/08/12 02:18:06;;;;;;;1.67;1.57;;;14.80;99.90;;;;;;4963551;29;20633;-88
2023/08/12 02:20:33;;;;;;;2.40;1.83;;;14.80;99.90;;;;;;4965814;28;20504;-86
2023/08/12 02:23:00;;;;;;;1.97;1.53;;;14.60;99.90;;;;;;4967950;28;20453;-88
2023/08/12 02:25:27;;;;;;;44.50;3.37;;;14.80;99.90;;;;;;4966395;29;20449;-89
2023/08/12 02:27:54;;;;;;;2.33;2.23;;;14.70;99.90;;;;;;4964164;28;20431;-84
2023/08/12 02:30:22;;;;;;;3.63;2.40;;;14.60;99.90;;;;;;4964226;28;20435;-86
2023/08/12 02:32:49;;;;;;;2.40;2.20;;;14.60;99.90;;;;;;4965552;28;20413;-87
2023/08/12 02:35:20;;;;;;;1.43;1.17;;;14.60;99.90;;;;;;4964495;28;20453;-87
2023/08/12 02:37:50;;;;;;;3.70;3.47;;;14.50;99.90;;;;;;4968397;28;20437;-87
2023/08/12 02:40:20;;;;;;;0.90;0.90;;;14.50;99.90;;;;;;4975028;28;20504;-87
2023/08/12 02:42:50;;;;;;;5.03;3.33;;;14.60;99.90;;;;;;4970170;28;20434;-85
2023/08/12 02:45:17;;;;;;;1.53;1.43;;;14.60;99.90;;;;;;4984584;28;20709;-89
2023/08/12 02:47:44;;;;;;;3.40;2.30;;;14.60;99.90;;;;;;4975561;28;20445;-88
2023/08/12 02:50:11;;;;;;;0.90;0.90;;;14.70;99.90;;;;;;4986357;28;20448;-87
2023/08/12 02:52:38;;;;;;;1.67;1.57;;;14.70;99.90;;;;;;4960268;29;20441;-91
2023/08/12 02:55:06;;;;;;;2.10;2.00;;;14.70;99.90;;;;;;4970674;28;20507;-85
2023/08/12 02:57:33;;;;;;;0.60;0.60;;;14.60;99.90;;;;;;4994891;28;20428;-88
2023/08/12 03:00:00;;;;;;;1.03;1.03;;;14.50;99.90;;;;;;4980189;28;20519;-87
2023/08/12 03:02:27;;;;;;;0.83;0.83;;;14.50;99.90;;;;;;4979440;28;20433;-90
2023/08/12 03:04:55;;;;;;;1.40;1.37;;;14.50;99.90;;;;;;4968690;28;20504;-83
2023/08/12 03:07:21;;;;;;;3.33;3.13;;;14.50;99.90;;;;;;4964296;29;20518;-89
2023/08/12 03:09:48;;;;;;;2.70;1.57;;;14.60;99.90;;;;;;4964670;28;20779;-86
2023/08/12 03:12:16;;;;;;;1.97;1.87;;;14.50;99.90;;;;;;4964702;28;20816;-84
2023/08/12 03:14:43;;;;;;;1.20;1.20;;;14.60;99.90;;;;;;4965754;28;20453;-86
2023/08/12 03:17:10;;;;;;;6.33;2.40;;;14.50;99.90;;;;;;4965663;28;20454;-82
2023/08/12 03:19:38;;;;;;;0.87;0.87;;;14.50;99.90;;;;;;4964690;28;20501;-87
2023/08/12 03:22:04;;;;;;;1.20;1.20;;;14.50;99.90;;;;;;4958590;29;20544;-85
2023/08/12 03:24:32;;;;;;;1.93;1.83;;;14.50;99.90;;;;;;4956797;29;20461;-86
2023/08/12 03:26:59;;;;;;;1.00;1.00;;;14.70;99.90;;;;;;4953964;28;20596;-85
2023/08/12 03:29:27;;;;;;;1.40;1.33;;;14.50;99.90;;;;;;4962434;28;20450;-83
2023/08/12 03:31:54;;;;;;;1.47;1.37;;;14.40;99.90;;;;;;4957597;28;20450;-84
2023/08/12 03:34:21;;;;;;;1.37;1.33;;;14.40;99.90;;;;;;4953517;28;20413;-85
2023/08/12 03:36:50;;;;;;;1.30;1.30;;;14.40;99.90;;;;;;4952079;28;20481;-82
2023/08/12 03:39:16;;;;;;;1.20;1.20;;;14.40;99.90;;;;;;4954712;28;20512;-84
2023/08/12 03:41:44;;;;;;;1.63;1.57;;;14.40;99.90;;;;;;4957502;28;20488;-82
2023/08/12 03:44:10;;;;;;;1.33;1.10;;;14.40;99.90;;;;;;4961800;28;20458;-85
2023/08/12 03:46:38;;;;;;;1.83;1.73;;;14.40;99.90;;;;;;4953565;28;20769;-83
2023/08/12 03:49:05;;;;;;;1.63;1.53;;;14.40;99.90;;;;;;4963362;28;20457;-84
2023/08/12 03:51:32;;;;;;;1.03;1.03;;;14.50;99.90;;;;;;4962426;28;20424;-83
2023/08/12 03:53:59;;;;;;;1.13;1.13;;;14.40;99.90;;;;;;4963135;28;20527;-83
2023/08/12 03:56:26;;;;;;;1.33;1.33;;;14.40;99.90;;;;;;4951455;28;20454;-83
2023/08/12 03:58:53;;;;;;;1.67;1.57;;;14.60;99.90;;;;;;4961829;28;20547;-83
2023/08/12 04:01:20;;;;;;;3.87;3.50;;;14.50;99.90;;;;;;4961985;28;20541;-83
2023/08/12 04:03:51;;;;;;;1.67;1.57;;;14.60;99.90;;;;;;4958575;28;20465;-85
2023/08/12 04:06:18;;;;;;;2.70;1.60;;;14.60;99.90;;;;;;4959134;28;20725;-84
2023/08/12 04:08:45;;;;;;;1.67;1.60;;;14.80;99.90;;;;;;4960773;28;20454;-85
2023/08/12 04:11:12;;;;;;;1.33;1.33;;;14.90;99.90;;;;;;4956184;28;20438;-84
2023/08/12 04:13:39;;;;;;;2.20;2.07;;;14.80;99.90;;;;;;4958148;29;20457;-83
2023/08/12 04:16:06;;;;;;;2.23;2.13;;;14.90;99.90;;;;;;4954396;28;20446;-84
2023/08/12 04:18:33;;;;;;;1.50;1.40;;;15.00;99.90;;;;;;4964579;28;20465;-84
2023/08/12 04:21:00;;;;;;;1.70;1.60;;;15.00;99.90;;;;;;4972270;28;20496;-84
2023/08/12 04:23:27;;;;;;;1.73;1.63;;;15.00;99.90;;;;;;4964365;28;20476;-84
2023/08/12 04:25:54;;;;;;;1.93;1.83;;;15.10;99.90;;;;;;4960282;28;20837;-84
2023/08/12 04:28:21;;;;;;;1.43;1.43;;;15.10;99.90;;;;;;4956268;29;20505;-84
2023/08/12 04:30:50;;;;;;;1.40;1.30;;;15.20;99.90;;;;;;4958263;28;20556;-85
2023/08/12 04:33:19;;;;;;;0.93;0.90;;;15.20;99.90;;;;;;4961072;28;20441;-83
2023/08/12 04:35:54;;;;;;;1.73;1.60;;;15.30;99.90;;;;;;4957145;28;20420;-81
2023/08/12 04:38:21;;;;;;;1.30;1.30;;;15.50;99.60;;;;;;4965132;28;20460;-87
2023/08/12 04:40:48;;;;;;;1.60;1.50;;;15.70;99.30;;;;;;4963908;28;20477;-80
2023/08/12 04:43:15;;;;;;;1.70;1.60;;;15.80;98.80;;;;;;4965501;28;20472;-86
2023/08/12 04:45:48;;;;;;;1.57;1.47;;;15.90;98.80;;;;;;4966749;28;20445;-86
2023/08/12 04:48:22;;;;;;;1.63;1.53;;;16.00;98.10;;;;;;4967932;28;20442;-83
2023/08/12 04:50:59;;;;;;;;;;;;;;;;;;;;;
2023/08/12 04:53:35;;;;;;;0.93;0.93;;;16.20;98.10;;;;;;4960187;28;20478;-85
2023/08/12 04:56:02;;;;;;;1.43;1.43;;;16.30;97.60;;;;;;4970161;28;20443;-88
2023/08/12 04:58:29;;;;;;;0.87;0.87;;;16.30;97.30;;;;;;4956131;28;20747;-87
2023/08/12 05:01:00;;;;;;;0.60;0.60;;;16.40;97.70;;;;;;4959734;28;20559;-89
2023/08/12 05:03:37;;;;;;;1.87;1.77;;;16.70;96.60;;;;;;4956139;28;20427;-84
2023/08/12 05:06:09;;;;;;;2.50;2.30;;;16.90;95.90;;;;;;4951934;28;20424;-90
2023/08/12 05:08:36;;;;;;;1.27;1.27;;;16.90;95.70;;;;;;4962467;28;20424;-87
2023/08/12 05:11:03;;;;;;;0.50;0.50;;;17.00;95.20;;;;;;4969579;28;20768;-87
2023/08/12 05:13:54;;;;;;;1.00;1.00;;;17.20;95.00;;;;;;4962808;29;20445;-84
2023/08/12 05:16:20;;;;;;;25.33;1.93;;;17.40;94.90;;;;;;4960606;28;20794;-83
2023/08/12 05:18:48;;;;;;;2.00;1.90;;;17.50;93.90;;;;;;4962556;28;20598;-80
2023/08/12 05:21:15;;;;;;;1.00;1.00;;;17.80;93.70;;;;;;4956718;28;20593;-82
2023/08/12 05:23:42;;;;;;;0.80;0.80;;;17.90;92.90;;;;;;4962510;28;20469;-82
2023/08/12 05:26:09;;;;;;;1.57;1.47;;;18.00;92.80;;;;;;4961712;28;20434;-83
2023/08/12 05:28:36;;;;;;;1.03;0.97;;;17.90;92.70;;;;;;4963190;28;20660;-81
2023/08/12 05:31:03;;;;;;;0.87;0.87;;;18.10;92.40;;;;;;4962710;28;20752;-79
2023/08/12 05:33:31;;;;;;;0.60;0.60;;;18.20;92.20;;;;;;4954842;28;20457;-82
2023/08/12 05:35:58;;;;;;;2.37;2.27;;;18.20;91.70;;;;;;4962029;28;20441;-81
2023/08/12 05:38:25;;;;;;;1.07;1.07;;;18.40;92.10;;;;;;4961664;28;20423;-83
2023/08/12 05:40:52;;;;;;;1.33;1.33;;;18.50;91.20;;;;;;4965505;28;20516;-81
2023/08/12 05:43:20;;;;;;;2.27;2.07;;;18.50;91.20;;;;;;4949945;28;20447;-79
2023/08/12 05:45:48;;;;;;;0.83;0.83;;;18.60;90.50;;;;;;4962828;28;20436;-84
2023/08/12 05:48:15;;;;;;;1.80;1.70;;;18.70;90.70;;;;;;4958209;28;20932;-80
2023/08/12 05:50:43;;;;;;;4.53;4.13;;;19.10;90.20;;;;;;4962763;28;20751;-83
2023/08/12 05:53:10;;;;;;;0.60;0.60;;;19.50;89.50;;;;;;4962776;28;20469;-78
2023/08/12 05:55:37;;;;;;;2.50;2.03;;;19.50;87.70;;;;;;4962676;28;20488;-83
2023/08/12 05:58:05;;;;;;;0.70;0.70;;;19.70;86.70;;;;;;4963529;28;20483;-82
2023/08/12 06:00:31;;;;;;;0.93;0.93;;;20.10;84.70;;;;;;4968360;28;20463;-78
2023/08/12 06:02:59;;;;;;;1.43;1.33;;;20.30;84.90;;;;;;4961741;29;20444;-84
2023/08/12 06:05:26;;;;;;;4.83;2.50;;;20.50;83.90;;;;;;4960476;28;20436;-84
2023/08/12 06:07:53;;;;;;;2.30;1.07;;;20.40;83.40;;;;;;4962834;28;20460;-82
2023/08/12 06:10:20;;;;;;;0.83;0.83;;;20.60;81.80;;;;;;4961889;28;20447;-82
2023/08/12 06:12:47;;;;;;;0.87;0.87;;;20.70;81.30;;;;;;4958017;28;20458;-83
2023/08/12 06:15:14;;;;;;;1.17;1.17;;;20.90;80.50;;;;;;4964228;28;20512;-83
2023/08/12 06:17:41;;;;;;;0.70;0.70;;;21.20;80.30;;;;;;4961422;28;20449;-83
2023/08/12 06:20:09;;;;;;;0.90;0.90;;;21.30;79.00;;;;;;4960760;28;20481;-83
2023/08/12 06:22:36;;;;;;;0.77;0.77;;;21.30;78.90;;;;;;4961666;28;20471;-83
2023/08/12 06:25:03;;;;;;;0.93;0.83;;;21.50;78.50;;;;;;4961964;28;20456;-84
2023/08/12 06:27:30;;;;;;;0.60;0.60;;;21.80;77.60;;;;;;4963105;28;20416;-82
2023/08/12 06:29:57;;;;;;;0.70;0.70;;;22.10;76.60;;;;;;4957476;28;20778;-83
2023/08/12 06:32:24;;;;;;;0.67;0.67;;;22.10;75.00;;;;;;4961420;28;20604;-82
2023/08/12 06:34:51;;;;;;;0.97;0.97;;;22.30;73.40;;;;;;4962957;28;20446;-84
2023/08/12 06:37:18;;;;;;;1.77;1.70;;;22.60;75.10;;;;;;4961915;28;20447;-82
2023/08/12 06:39:45;;;;;;;0.90;0.90;;;23.10;74.20;;;;;;4956220;29;20813;-80
2023/08/12 06:42:13;;;;;;;0.97;0.97;;;23.40;72.00;;;;;;4962360;29;20823;-82
2023/08/12 06:44:42;;;;;;;0.70;0.70;;;23.50;72.00;;;;;;4960162;28;20448;-83
2023/08/12 06:47:10;;;;;;;0.80;0.80;;;23.50;69.80;;;;;;4960778;29;20465;-81
2023/08/12 06:49:36;;;;;;;1.07;1.03;;;23.60;69.00;;;;;;4961931;28;20472;-84
2023/08/12 06:52:03;;;;;;;1.47;1.37;;;24.00;68.80;;;;;;4962007;28;20496;-81
2023/08/12 06:54:35;;;;;;;1.30;1.30;;;24.30;66.00;;;;;;4962265;28;20786;-87
2023/08/12 06:57:03;;;;;;;0.90;0.90;;;24.70;65.20;;;;;;4961296;28;20487;-80
2023/08/12 06:59:30;;;;;;;0.90;0.90;;;25.10;63.30;;;;;;4963785;28;20464;-82
2023/08/12 07:01:57;;;;;;;1.07;1.00;;;25.20;62.80;;;;;;4964935;28;20487;-80
2023/08/12 07:04:25;;;;;;;0.90;0.90;;;25.50;63.00;;;;;;4961796;28;20472;-82
2023/08/12 07:06:52;;;;;;;2.33;2.23;;;25.30;61.30;;;;;;4966623;28;20780;-81
2023/08/12 07:09:19;;;;;;;1.10;1.10;;;25.50;62.20;;;;;;4973604;28;20468;-82
2023/08/12 07:11:46;;;;;;;1.30;1.20;;;25.90;61.70;;;;;;4967903;28;20428;-80
2023/08/12 07:14:13;;;;;;;0.80;0.80;;;25.60;61.00;;;;;;4960912;28;20770;-82
2023/08/12 07:16:40;;;;;;;1.60;1.50;;;25.60;61.50;;;;;;4951858;28;20424;-84
2023/08/12 07:19:09;;;;;;;0.90;0.90;;;25.80;61.30;;;;;;4949220;29;20450;-83
2023/08/12 07:21:36;;;;;;;0.97;0.97;;;25.70;60.90;;;;;;4962035;28;20449;-85
2023/08/12 07:24:03;;;;;;;1.07;1.07;;;25.70;60.60;;;;;;4958363;28;20458;-82
2023/08/12 07:26:31;;;;;;;2.00;1.90;;;25.50;62.00;;;;;;4952499;28;20638;-82
2023/08/12 07:28:58;;;;;;;1.57;1.47;;;26.20;61.60;;;;;;4945400;29;20461;-80
2023/08/12 07:31:25;;;;;;;0.80;0.80;;;26.60;58.60;;;;;;4960999;28;20456;-83
2023/08/12 07:33:52;;;;;;;1.07;1.07;;;26.80;59.10;;;;;;4949510;29;20446;-82
2023/08/12 07:36:20;;;;;;;1.00;1.00;;;27.20;57.80;;;;;;4958086;28;20446;-82
2023/08/12 07:38:47;;;;;;;1.27;1.17;;;27.90;56.50;;;;;;4961169;28;20447;-82
2023/08/12 07:41:15;;;;;;;1.07;1.07;;;29.00;53.80;;;;;;4957678;28;20486;-86
2023/08/12 07:43:41;;;;;;;0.93;0.90;;;29.00;53.30;;;;;;4963532;28;20775;-83
2023/08/12 07:46:09;;;;;;;1.07;1.07;;;29.70;51.00;;;;;;4964246;28;20587;-84
2023/08/12 07:48:37;;;;;;;1.70;1.60;;;29.90;49.60;;;;;;4969345;28;20520;-83
2023/08/12 07:51:05;;;;;;;2.80;2.33;;;30.50;48.50;;;;;;4965254;28;20520;-83
2023/08/12 07:53:32;;;;;;;1.33;1.13;;;30.00;49.80;;;;;;4959977;28;20711;-83
2023/08/12 07:55:59;;;;;;;1.17;1.17;;;30.20;49.20;;;;;;4960423;28;20451;-83
2023/08/12 07:58:29;;;;;;;1.00;1.00;;;30.60;49.30;;;;;;4952120;28;20450;-83
2023/08/12 08:00:56;;;;;;;1.20;1.20;;;30.80;47.20;;;;;;4964446;28;20882;-83
2023/08/12 08:03:23;;;;;;;1.00;1.00;;;30.60;48.20;;;;;;4954286;28;20485;-82
2023/08/12 08:05:53;;;;;;;0.90;0.90;;;30.20;48.20;;;;;;4960525;28;20500;-85
2023/08/12 08:08:20;;;;;;;0.80;0.80;;;30.10;48.80;;;;;;4944289;28;20442;-85
2023/08/12 08:10:47;;;;;;;1.27;1.03;;;29.90;48.90;;;;;;4958319;28;20450;-83
2023/08/12 08:13:19;;;;;;;1.20;1.20;;;30.80;47.60;;;;;;4956083;28;20441;-83
2023/08/12 08:15:46;;;;;;;2.07;1.33;;;31.40;45.70;;;;;;4961483;28;20445;-86
2023/08/12 08:18:14;;;;;;;2.77;2.60;;;30.70;47.10;;;;;;4958598;28;20512;-85
2023/08/12 08:20:44;;;;;;;3.20;2.23;;;30.60;46.20;;;;;;4953284;28;20484;-82
2023/08/12 08:23:12;;;;;;;0.60;0.60;;;31.00;45.50;;;;;;4956169;28;20456;-86
2023/08/12 08:25:40;;;;;;;1.10;1.10;;;30.80;45.90;;;;;;4954178;28;20453;-85
2023/08/12 08:28:08;;;;;;;1.63;1.53;;;30.50;46.00;;;;;;4977039;28;20696;-84
2023/08/12 08:30:36;;;;;;;1.30;1.30;;;30.90;47.20;;;;;;4960650;28;20445;-82
2023/08/12 08:33:03;;;;;;;1.00;1.00;;;31.40;47.70;;;;;;4955829;28;20499;-81
2023/08/12 08:35:30;;;;;;;1.00;1.00;;;32.00;44.70;;;;;;4956944;28;20445;-80
2023/08/12 08:37:57;;;;;;;1.20;1.20;;;31.60;44.20;;;;;;4952275;28;20456;-78
2023/08/12 08:40:26;;;;;;;0.90;0.90;;;32.50;44.40;;;;;;4960363;28;20651;-81
2023/08/12 08:42:56;;;;;;;1.87;1.77;;;32.50;43.00;;;;;;4961507;28;20533;-81
2023/08/12 08:45:25;;;;;;;1.10;1.10;;;32.30;43.00;;;;;;4964400;29;20785;-86
2023/08/12 08:47:52;;;;;;;1.00;1.00;;;32.50;43.30;;;;;;4965704;28;20525;-84
2023/08/12 08:50:21;;;;;;;1.40;1.40;;;32.00;45.00;;;;;;4957861;28;20482;-85
2023/08/12 08:52:51;;;;;;;1.20;1.10;;;32.00;43.70;;;;;;4957259;28;20835;-83
2023/08/12 08:55:19;;;;;;;0.93;0.93;;;32.00;43.50;;;;;;4961512;28;20449;-88
2023/08/12 08:57:49;;;;;;;1.57;1.47;;;32.00;44.50;;;;;;4960285;29;20458;-81
2023/08/12 09:00:17;;;;;;;1.43;1.33;;;32.10;43.50;;;;;;4961163;28;20544;-82
2023/08/12 09:02:48;;;;;;;0.87;0.87;;;32.20;45.20;;;;;;4965386;28;20488;-83
2023/08/12 09:05:17;;;;;;;1.00;1.00;;;32.40;41.40;;;;;;4973569;28;20850;-83
2023/08/12 09:07:45;;;;;;;0.87;0.87;;;31.70;43.10;;;;;;4963733;28;20512;-83
2023/08/12 09:10:12;;;;;;;1.00;1.00;;;31.60;43.60;;;;;;4967705;28;20445;-81
2023/08/12 09:12:42;;;;;;;1.00;1.00;;;31.90;43.40;;;;;;4963777;29;20634;-83
2023/08/12 09:15:11;;;;;;;0.80;0.80;;;31.60;44.70;;;;;;4969734;28;20516;-81
2023/08/12 09:17:39;;;;;;;1.00;1.00;;;32.10;42.00;;;;;;4955344;28;20442;-84
2023/08/12 09:20:11;;;;;;;1.00;1.00;;;31.80;42.30;;;;;;4961243;28;20646;-82
2023/08/12 09:22:41;;;;;;;1.40;1.33;;;32.50;42.80;;;;;;4963417;28;20433;-85
2023/08/12 09:25:09;;;;;;;0.80;0.80;;;32.20;40.80;;;;;;4965230;28;20449;-88
2023/08/12 09:27:41;;;;;;;0.90;0.90;;;32.80;42.20;;;;;;4955665;28;20452;-84
2023/08/12 09:30:13;;;;;;;1.37;1.30;;;32.60;41.30;;;;;;4963218;29;20532;-84
2023/08/12 09:32:40;;;;;;;1.20;1.20;;;31.60;42.00;;;;;;4970789;28;20429;-84
2023/08/12 09:35:16;;;;;;;0.70;0.70;;;31.50;45.70;;;;;;4965009;28;20459;-84
2023/08/12 09:37:43;;;;;;;1.00;1.00;;;31.70;43.40;;;;;;4970066;28;20562;-82
2023/08/12 09:40:12;;;;;;;0.80;0.80;;;31.20;43.00;;;;;;4959946;28;20477;-85
2023/08/12 09:42:45;;;;;;;0.90;0.90;;;31.00;43.90;;;;;;4976724;28;20471;-86
2023/08/12 09:45:13;;;;;;;0.90;0.90;;;31.00;44.50;;;;;;4981802;28;20460;-85
2023/08/12 09:47:44;;;;;;;1.00;1.00;;;30.80;44.40;;;;;;4956245;28;20474;-82
2023/08/12 09:50:11;;;;;;;0.80;0.80;;;30.50;45.20;;;;;;4974132;28;20476;-80
2023/08/12 09:52:39;;;;;;;0.77;0.77;;;30.60;46.70;;;;;;4965191;28;20463;-80
2023/08/12 09:55:08;;;;;;;1.00;1.00;;;30.00;45.90;;;;;;4964222;28;20523;-82
2023/08/12 09:57:38;;;;;;;0.93;0.93;;;29.60;46.40;;;;;;4973046;28;20445;-84
2023/08/12 10:00:11;;;;;;;0.90;0.90;;;29.70;45.90;;;;;;4972427;28;20524;-88
2023/08/12 10:02:43;;;;;;;3.03;1.33;;;29.80;47.80;;;;;;4966402;28;20445;-88
2023/08/12 10:05:15;;;;;;;1.10;1.10;;;29.90;47.00;;;;;;4963520;28;20440;-82
2023/08/12 10:07:45;;;;;;;1.60;1.50;;;29.60;47.20;;;;;;4975027;28;20494;-83
2023/08/12 10:10:13;;;;;;;0.90;0.90;;;29.50;46.90;;;;;;4969348;28;20488;-86
2023/08/12 10:12:41;;;;;;;0.80;0.80;;;29.10;47.50;;;;;;4956796;28;20669;-85
2023/08/12 10:15:11;;;;;;;0.80;0.80;;;28.90;48.20;;;;;;4963175;29;20711;-83
2023/08/12 10:17:40;;;;;;;0.80;0.80;;;29.10;48.40;;;;;;4956397;28;20578;-84
2023/08/12 10:20:14;;;;;;;1.10;1.10;;;29.10;49.30;;;;;;4951662;28;20484;-87
2023/08/12 10:22:44;;;;;;;1.20;1.20;;;29.10;48.40;;;;;;4968146;28;20497;-85
2023/08/12 10:25:14;;;;;;;1.27;1.20;;;29.40;49.20;;;;;;4954290;29;20478;-85
2023/08/12 10:27:41;;;;;;;1.33;1.07;;;29.50;48.50;;;;;;4956150;28;20446;-83
2023/08/12 10:30:09;;;;;;;0.93;0.93;;;29.50;46.80;;;;;;4966950;28;20449;-83
2023/08/12 10:32:37;;;;;;;0.90;0.90;;;29.40;47.40;;;;;;4966810;28;20453;-85
2023/08/12 10:35:05;;;;;;;0.80;0.80;;;29.50;48.40;;;;;;4970593;28;20456;-86
2023/08/12 10:37:34;;;;;;;1.10;1.10;;;29.60;48.80;;;;;;4971170;28;20445;-84
2023/08/12 10:40:08;;;;;;;0.90;0.90;;;29.60;46.70;;;;;;4963167;28;20476;-83
2023/08/12 10:42:46;;;;;;;1.00;1.00;;;29.10;48.80;;;;;;4964581;28;20475;-84
2023/08/12 10:45:16;;;;;;;0.90;0.90;;;28.80;48.00;;;;;;4960910;28;20532;-82
2023/08/12 10:48:21;;;;;;;1.10;1.10;;;29.00;49.50;;;;;;4955123;28;20439;-82
2023/08/12 10:50:53;;;;;;;1.10;1.10;;;28.90;48.20;;;;;;4971642;28;20516;-82
2023/08/12 10:53:34;;;;;;;0.90;0.90;;;29.20;48.90;;;;;;4956554;29;20468;-84
2023/08/12 10:56:05;;;;;;;0.70;0.70;;;29.20;49.10;;;;;;4950006;28;20442;-83
2023/08/12 10:58:45;;;;;;;1.93;1.83;;;28.80;48.10;;;;;;4967768;28;20511;-83
2023/08/12 11:01:19;;;;;;;0.70;0.70;;;29.00;50.40;;;;;;4957499;29;20433;-80
2023/08/12 11:03:48;;;;;;;0.70;0.70;;;29.30;47.40;;;;;;4966526;28;20449;-85
2023/08/12 11:06:15;;;;;;;0.60;0.60;;;29.30;48.30;;;;;;4973087;28;20507;-83
2023/08/12 11:08:52;;;;;;;2.23;2.07;;;29.50;47.60;;;;;;4976209;28;20448;-85
2023/08/12 11:11:23;;;;;;;0.80;0.80;;;29.60;49.50;;;;;;4960950;28;20500;-83
2023/08/12 11:13:57;;;;;;;1.23;1.13;;;29.50;47.30;;;;;;4960690;28;20524;-80
2023/08/12 11:16:37;;;;;;;1.00;1.00;;;29.20;48.00;;;;;;4968499;28;20646;-83
2023/08/12 11:19:06;;;;;;;0.80;0.80;;;29.00;48.00;;;;;;4971906;28;20482;-79
2023/08/12 11:21:39;;;;;;;0.80;0.80;;;29.20;49.70;;;;;;4962517;29;20488;-82
2023/08/12 11:24:07;;;;;;;0.90;0.90;;;29.30;47.80;;;;;;4968979;28;20858;-86
2023/08/12 11:26:34;;;;;;;1.07;1.07;;;29.20;47.30;;;;;;4953941;29;20457;-84
2023/08/12 11:29:07;;;;;;;3.07;2.87;;;29.10;48.40;;;;;;4962906;29;20442;-84
2023/08/12 11:31:36;;;;;;;1.37;1.27;;;29.00;48.80;;;;;;4970392;28;20876;-82
2023/08/12 11:34:05;;;;;;;1.30;1.20;;;29.10;48.80;;;;;;4971313;28;20438;-87
2023/08/12 11:36:34;;;;;;;0.70;0.70;;;29.30;49.70;;;;;;4966174;28;20523;-82
2023/08/12 11:39:05;;;;;;;0.70;0.70;;;29.40;47.20;;;;;;4963656;28;20682;-81
2023/08/12 11:41:34;;;;;;;0.80;0.80;;;29.20;47.40;;;;;;4966299;28;20470;-86
2023/08/12 11:44:00;;;;;;;0.90;0.90;;;29.30;47.90;;;;;;4967735;28;20794;-84
2023/08/12 11:46:27;;;;;;;1.30;1.30;;;29.40;47.30;;;;;;4969275;28;20469;-85
2023/08/12 11:48:55;;;;;;;0.90;0.90;;;29.60;47.90;;;;;;4965116;28;20681;-83
2023/08/12 11:51:22;;;;;;;1.70;1.53;;;29.60;47.30;;;;;;4971662;28;20480;-83
2023/08/12 11:53:50;;;;;;;0.90;0.90;;;29.60;47.30;;;;;;4951133;28;20471;-81
2023/08/12 11:56:25;;;;;;;1.07;1.00;;;29.40;48.40;;;;;;4964270;28;20469;-84
2023/08/12 11:58:54;;;;;;;0.83;0.83;;;29.50;47.10;;;;;;4962547;28;20503;-81
2023/08/12 12:01:23;;;;;;;0.80;0.80;;;29.60;48.70;;;;;;4969936;28;20450;-81
2023/08/12 12:03:51;;;;;;;0.77;0.77;;;29.50;47.60;;;;;;4948941;28;20445;-84
2023/08/12 12:06:31;;;;;;;1.43;1.33;;;29.40;48.80;;;;;;4965148;28;20445;-84
2023/08/12 12:09:18;;;;;;;0.70;0.70;;;29.70;48.90;;;;;;4964995;28;20622;-82
2023/08/12 12:11:45;;;;;;;0.83;0.83;;;29.80;47.10;;;;;;4961351;28;20505;-80
2023/08/12 12:14:12;;;;;;;0.90;0.90;;;29.90;47.40;;;;;;4959038;28;20421;-80
2023/08/12 12:16:44;;;;;;;1.27;1.27;;;29.80;48.80;;;;;;4972539;28;20452;-84
2023/08/12 12:19:16;;;;;;;1.27;1.20;;;29.70;48.00;;;;;;4959997;29;20517;-84
2023/08/12 12:21:46;;;;;;;0.80;0.80;;;29.80;47.60;;;;;;4961582;28;20438;-88
2023/08/12 12:24:13;;;;;;;0.80;0.80;;;29.70;46.90;;;;;;4952268;29;20477;-86
2023/08/12 12:26:41;;;;;;;0.80;0.80;;;29.70;48.80;;;;;;4960678;28;20816;-80
2023/08/12 12:29:11;;;;;;;0.80;0.80;;;29.60;47.30;;;;;;4963457;28;20473;-82
2023/08/12 12:31:39;;;;;;;1.00;1.00;;;29.70;47.80;;;;;;4955341;28;20515;-87
2023/08/12 12:34:07;;;;;;;0.90;0.90;;;29.90;46.80;;;;;;4965829;28;20484;-88
2023/08/12 12:36:37;;;;;;;1.73;1.63;;;29.90;48.20;;;;;;4967109;28;20544;-80
2023/08/12 12:39:04;;;;;;;0.93;0.93;;;29.80;49.70;;;;;;4969635;28;20442;-85
2023/08/12 12:41:32;;;;;;;1.20;1.10;;;29.90;48.40;;;;;;4958712;29;20481;-82
2023/08/12 12:44:01;;;;;;;0.70;0.70;;;30.00;46.20;;;;;;4968939;28;20550;-86
2023/08/12 12:46:29;;;;;;;0.90;0.90;;;29.70;47.20;;;;;;4952641;29;20449;-85
2023/08/12 12:48:56;;;;;;;0.70;0.70;;;29.90;48.20;;;;;;4967512;28;20646;-85
2023/08/12 12:51:23;;;;;;;0.90;0.90;;;30.00;46.70;;;;;;4956606;28;20702;-87
2023/08/12 12:53:51;;;;;;;0.97;0.97;;;29.90;48.40;;;;;;4948609;28;20490;-79
2023/08/12 12:56:18;;;;;;;1.10;1.10;;;30.00;47.60;;;;;;4949802;28;20480;-79